Overview Statistics Trail Chart Weather Telemetry Raw packets
 

This is the latest recevied weather packets stored in our database for station/object N9BLE. If no packets are shown the sender has not sent any weather packets the latest 10 day(s).

<< 13 14 15 16 17 18 19 >>
Time Temp. Humidity Pressure Rain* Wind** Luminosity Snow
1777946307 16.11° C 76% 1003.9 hPa 0 mm - 0 W/m² -
1777946004 16.11° C 76% 1003.7 hPa 0 mm - 0 W/m² -
1777945702 16.11° C 76% 1003.6 hPa 0 mm - 0 W/m² -
1777945398 16.11° C 77% 1003.4 hPa 0 mm - 0 W/m² -
1777945095 16.11° C 77% 1003.6 hPa 0 mm - 0 W/m² -
1777944792 16.67° C 77% 1003.2 hPa 0 mm - 0 W/m² -
1777944491 16.67° C 77% 1003.2 hPa 0 mm - 0 W/m² -
1777944188 16.67° C 76% 1003 hPa 0 mm - 0 W/m² -
1777943883 16.67° C 74% 1002.9 hPa 0 mm - 0 W/m² -
1777943581 17.22° C 72% 1003 hPa 0 mm - 0 W/m² -
1777943276 17.22° C 72% 1002.9 hPa 0 mm - 0 W/m² -
1777942973 17.78° C 69% 1003 hPa 0 mm - 0 W/m² -
1777942669 18.33° C 67% 1002.9 hPa 0 mm - 1 W/m² -
1777942366 18.89° C 62% 1002.9 hPa 0 mm - 3 W/m² -
1777942063 18.89° C 61% 1002.7 hPa 0 mm - 5 W/m² -
1777941759 20° C 58% 1002.7 hPa 0 mm - 6 W/m² -
1777941457 20° C 55% 1002.3 hPa 0 mm - 8 W/m² -
1777941159 19.44° C 56% 1002.4 hPa 0 mm - 9 W/m² -
1777940851 19.44° C 57% 1001.9 hPa 0 mm - 8 W/m² -
1777940548 19.44° C 57% 1001.6 hPa 0 mm - 10 W/m² -
1777940245 19.44° C 59% 1001.3 hPa 0 mm - 14 W/m² -
1777939943 19.44° C 61% 1001.5 hPa 0 mm - 16 W/m² -
1777939640 19.44° C 60% 1001.4 hPa 0 mm - 18 W/m² -
1777939338 20° C 61% 1001.4 hPa 0 mm - 22 W/m² -
1777939034 20.56° C 58% 1001.7 hPa 0 mm - 25 W/m² -

* Rain latest hour (hover to see other rain measurements)
** Current wind speed in m/s (hover to see current wind gust speed)